sensor_id;sensor_type;location;lat;lon;timestamp;temperature;humidity
16491;DHT22;8356;51.214;3.270;2022-08-21T00:01:59;512.10;2380.80
16491;DHT22;8356;51.214;3.270;2022-08-21T00:04:24;512.00;2380.80
16491;DHT22;8356;51.214;3.270;2022-08-21T00:06:51;487.20;2380.80
16491;DHT22;8356;51.214;3.270;2022-08-21T00:09:18;487.20;2380.80
16491;DHT22;8356;51.214;3.270;2022-08-21T00:11:44;487.10;2380.80
16491;DHT22;8356;51.214;3.270;2022-08-21T00:14:11;487.10;2380.80
16491;DHT22;8356;51.214;3.270;2022-08-21T00:16:37;487.10;2380.80
16491;DHT22;8356;51.214;3.270;2022-08-21T00:19:04;487.10;2380.80
16491;DHT22;8356;51.214;3.270;2022-08-21T00:21:30;487.00;2380.80
16491;DHT22;8356;51.214;3.270;2022-08-21T00:23:56;486.70;2380.80
16491;DHT22;8356;51.214;3.270;2022-08-21T00:26:22;486.70;2380.80
16491;DHT22;8356;51.214;3.270;2022-08-21T00:28:48;486.70;2380.80
16491;DHT22;8356;51.214;3.270;2022-08-21T00:31:14;486.70;2380.80
16491;DHT22;8356;51.214;3.270;2022-08-21T00:33:41;486.70;2380.80
16491;DHT22;8356;51.214;3.270;2022-08-21T00:36:07;486.70;2380.80
16491;DHT22;8356;51.214;3.270;2022-08-21T00:38:33;486.70;2380.80
16491;DHT22;8356;51.214;3.270;2022-08-21T00:41:01;486.80;2380.80
16491;DHT22;8356;51.214;3.270;2022-08-21T00:43:31;486.80;2380.80
16491;DHT22;8356;51.214;3.270;2022-08-21T00:45:57;486.80;2380.80
16491;DHT22;8356;51.214;3.270;2022-08-21T00:48:23;486.80;2380.80
16491;DHT22;8356;51.214;3.270;2022-08-21T00:50:57;486.70;2380.80
16491;DHT22;8356;51.214;3.270;2022-08-21T00:53:23;486.70;2380.80
16491;DHT22;8356;51.214;3.270;2022-08-21T00:55:51;486.50;2380.80
16491;DHT22;8356;51.214;3.270;2022-08-21T00:58:17;486.60;2380.80
16491;DHT22;8356;51.214;3.270;2022-08-21T01:00:49;486.60;2380.80
16491;DHT22;8356;51.214;3.270;2022-08-21T01:03:18;486.60;2380.80
16491;DHT22;8356;51.214;3.270;2022-08-21T01:05:45;486.60;2380.80
16491;DHT22;8356;51.214;3.270;2022-08-21T01:08:12;486.50;2380.80
16491;DHT22;8356;51.214;3.270;2022-08-21T01:10:39;486.50;2380.80
16491;DHT22;8356;51.214;3.270;2022-08-21T01:13:06;486.60;2380.80
16491;DHT22;8356;51.214;3.270;2022-08-21T01:15:40;486.60;2380.80
16491;DHT22;8356;51.214;3.270;2022-08-21T01:18:09;486.60;2380.80
16491;DHT22;8356;51.214;3.270;2022-08-21T01:20:37;486.70;2380.80
16491;DHT22;8356;51.214;3.270;2022-08-21T01:23:04;486.70;2380.80
16491;DHT22;8356;51.214;3.270;2022-08-21T01:25:31;486.70;2380.80
16491;DHT22;8356;51.214;3.270;2022-08-21T01:27:59;486.70;2380.80
16491;DHT22;8356;51.214;3.270;2022-08-21T01:30:28;486.60;2380.80
16491;DHT22;8356;51.214;3.270;2022-08-21T01:32:55;486.40;2380.80
16491;DHT22;8356;51.214;3.270;2022-08-21T01:35:21;461.70;2380.80
16491;DHT22;8356;51.214;3.270;2022-08-21T01:37:48;486.40;2380.80
16491;DHT22;8356;51.214;3.270;2022-08-21T01:40:15;486.40;2380.80
16491;DHT22;8356;51.214;3.270;2022-08-21T01:42:44;461.70;2380.80
16491;DHT22;8356;51.214;3.270;2022-08-21T01:45:11;461.70;2380.80
16491;DHT22;8356;51.214;3.270;2022-08-21T01:47:36;461.70;2380.80
16491;DHT22;8356;51.214;3.270;2022-08-21T01:50:05;461.60;2380.80
16491;DHT22;8356;51.214;3.270;2022-08-21T01:52:30;461.50;2380.80
16491;DHT22;8356;51.214;3.270;2022-08-21T01:54:56;461.50;2380.80
16491;DHT22;8356;51.214;3.270;2022-08-21T01:57:22;461.40;2380.80
16491;DHT22;8356;51.214;3.270;2022-08-21T01:59:48;461.40;2380.80
16491;DHT22;8356;51.214;3.270;2022-08-21T02:02:14;461.40;2380.80
16491;DHT22;8356;51.214;3.270;2022-08-21T02:04:39;461.40;2380.80
16491;DHT22;8356;51.214;3.270;2022-08-21T02:07:05;461.40;2380.80
16491;DHT22;8356;51.214;3.270;2022-08-21T02:09:31;461.60;2380.80
16491;DHT22;8356;51.214;3.270;2022-08-21T02:11:56;461.40;2380.80
16491;DHT22;8356;51.214;3.270;2022-08-21T02:14:22;461.40;2380.80
16491;DHT22;8356;51.214;3.270;2022-08-21T02:16:48;461.40;2380.80
16491;DHT22;8356;51.214;3.270;2022-08-21T02:19:15;461.40;2380.80
16491;DHT22;8356;51.214;3.270;2022-08-21T02:21:41;461.00;2380.80
16491;DHT22;8356;51.214;3.270;2022-08-21T02:24:08;435.90;2355.20
16491;DHT22;8356;51.214;3.270;2022-08-21T02:26:34;461.40;2380.80
16491;DHT22;8356;51.214;3.270;2022-08-21T02:29:00;461.40;2380.80
16491;DHT22;8356;51.214;3.270;2022-08-21T02:31:26;461.20;2380.80
16491;DHT22;8356;51.214;3.270;2022-08-21T02:33:52;461.20;2380.80
16491;DHT22;8356;51.214;3.270;2022-08-21T02:36:17;461.20;2380.80
16491;DHT22;8356;51.214;3.270;2022-08-21T02:38:44;461.20;2380.80
16491;DHT22;8356;51.214;3.270;2022-08-21T02:41:15;461.20;2380.80
16491;DHT22;8356;51.214;3.270;2022-08-21T02:43:41;461.20;2380.80
16491;DHT22;8356;51.214;3.270;2022-08-21T02:46:09;461.20;2380.80
16491;DHT22;8356;51.214;3.270;2022-08-21T02:48:35;461.10;2380.80
16491;DHT22;8356;51.214;3.270;2022-08-21T02:51:15;461.20;2380.80
16491;DHT22;8356;51.214;3.270;2022-08-21T02:53:43;461.20;2380.80
16491;DHT22;8356;51.214;3.270;2022-08-21T02:56:11;461.20;2380.80
16491;DHT22;8356;51.214;3.270;2022-08-21T02:58:43;461.20;2380.80
16491;DHT22;8356;51.214;3.270;2022-08-21T03:01:10;461.20;2380.80
16491;DHT22;8356;51.214;3.270;2022-08-21T03:03:38;461.30;2380.80
16491;DHT22;8356;51.214;3.270;2022-08-21T03:06:06;461.20;2380.80
16491;DHT22;8356;51.214;3.270;2022-08-21T03:08:33;461.20;2380.80
16491;DHT22;8356;51.214;3.270;2022-08-21T03:10:59;461.30;2380.80
16491;DHT22;8356;51.214;3.270;2022-08-21T03:13:26;461.40;2380.80
16491;DHT22;8356;51.214;3.270;2022-08-21T03:15:53;461.30;2380.80
16491;DHT22;8356;51.214;3.270;2022-08-21T03:18:19;461.30;2380.80
16491;DHT22;8356;51.214;3.270;2022-08-21T03:20:45;461.10;2380.80
16491;DHT22;8356;51.214;3.270;2022-08-21T03:23:11;461.10;2380.80
16491;DHT22;8356;51.214;3.270;2022-08-21T03:25:38;461.20;2380.80
16491;DHT22;8356;51.214;3.270;2022-08-21T03:28:05;461.10;2380.80
16491;DHT22;8356;51.214;3.270;2022-08-21T03:30:31;461.10;2380.80
16491;DHT22;8356;51.214;3.270;2022-08-21T03:33:00;461.00;2380.80
16491;DHT22;8356;51.214;3.270;2022-08-21T03:35:27;461.00;2380.80
16491;DHT22;8356;51.214;3.270;2022-08-21T03:37:53;461.40;2380.80
16491;DHT22;8356;51.214;3.270;2022-08-21T03:40:20;461.00;2380.80
16491;DHT22;8356;51.214;3.270;2022-08-21T03:42:46;461.00;2380.80
16491;DHT22;8356;51.214;3.270;2022-08-21T03:45:14;460.90;2380.80
16491;DHT22;8356;51.214;3.270;2022-08-21T03:50:18;461.00;2380.80
16491;DHT22;8356;51.214;3.270;2022-08-21T03:52:43;460.90;2380.80
16491;DHT22;8356;51.214;3.270;2022-08-21T03:55:10;460.80;2380.80
16491;DHT22;8356;51.214;3.270;2022-08-21T03:57:36;460.80;2380.80
16491;DHT22;8356;51.214;3.270;2022-08-21T04:00:02;460.80;2380.80
16491;DHT22;8356;51.214;3.270;2022-08-21T04:02:28;460.90;2380.80
16491;DHT22;8356;51.214;3.270;2022-08-21T04:04:53;460.80;2380.80
16491;DHT22;8356;51.214;3.270;2022-08-21T04:07:19;436.10;2355.20
16491;DHT22;8356;51.214;3.270;2022-08-21T04:09:45;460.80;2380.80
16491;DHT22;8356;51.214;3.270;2022-08-21T04:12:11;460.80;2380.80
16491;DHT22;8356;51.214;3.270;2022-08-21T04:14:36;460.80;2380.80
16491;DHT22;8356;51.214;3.270;2022-08-21T04:17:02;460.80;2380.80
16491;DHT22;8356;51.214;3.270;2022-08-21T04:19:28;460.90;2380.80
16491;DHT22;8356;51.214;3.270;2022-08-21T04:21:53;461.00;2380.80
16491;DHT22;8356;51.214;3.270;2022-08-21T04:24:19;460.90;2380.80
16491;DHT22;8356;51.214;3.270;2022-08-21T04:26:45;460.90;2380.80
16491;DHT22;8356;51.214;3.270;2022-08-21T04:29:10;460.80;2380.80
16491;DHT22;8356;51.214;3.270;2022-08-21T04:31:37;460.80;2380.80
16491;DHT22;8356;51.214;3.270;2022-08-21T04:34:04;461.20;2380.80
16491;DHT22;8356;51.214;3.270;2022-08-21T04:36:30;460.80;2380.80
16491;DHT22;8356;51.214;3.270;2022-08-21T04:38:56;460.80;2380.80
16491;DHT22;8356;51.214;3.270;2022-08-21T04:41:22;460.80;2380.80
16491;DHT22;8356;51.214;3.270;2022-08-21T04:43:47;460.80;2380.80
16491;DHT22;8356;51.214;3.270;2022-08-21T04:46:13;460.80;2380.80
16491;DHT22;8356;51.214;3.270;2022-08-21T04:48:39;460.80;2380.80
16491;DHT22;8356;51.214;3.270;2022-08-21T04:51:12;460.80;2380.80
16491;DHT22;8356;51.214;3.270;2022-08-21T04:53:51;436.10;2355.20
16491;DHT22;8356;51.214;3.270;2022-08-21T04:56:23;436.10;2355.20
16491;DHT22;8356;51.214;3.270;2022-08-21T04:58:52;460.80;2380.80
16491;DHT22;8356;51.214;3.270;2022-08-21T05:01:22;460.80;2380.80
16491;DHT22;8356;51.214;3.270;2022-08-21T05:03:52;461.00;2380.80
16491;DHT22;8356;51.214;3.270;2022-08-21T05:06:19;461.00;2380.80
16491;DHT22;8356;51.214;3.270;2022-08-21T05:08:47;460.80;2380.80
16491;DHT22;8356;51.214;3.270;2022-08-21T05:11:14;460.80;2380.80
16491;DHT22;8356;51.214;3.270;2022-08-21T05:13:39;460.80;2380.80
16491;DHT22;8356;51.214;3.270;2022-08-21T05:16:06;460.80;2380.80
16491;DHT22;8356;51.214;3.270;2022-08-21T05:18:32;460.80;2380.80
16491;DHT22;8356;51.214;3.270;2022-08-21T05:20:58;460.80;2380.80
16491;DHT22;8356;51.214;3.270;2022-08-21T05:23:23;460.80;2380.80
16491;DHT22;8356;51.214;3.270;2022-08-21T05:25:51;460.80;2380.80
16491;DHT22;8356;51.214;3.270;2022-08-21T05:28:17;461.00;2380.80
16491;DHT22;8356;51.214;3.270;2022-08-21T05:30:43;461.00;2380.80
16491;DHT22;8356;51.214;3.270;2022-08-21T05:33:09;461.00;2380.80
16491;DHT22;8356;51.214;3.270;2022-08-21T05:35:35;460.90;2380.80
16491;DHT22;8356;51.214;3.270;2022-08-21T05:38:01;460.90;2380.80
16491;DHT22;8356;51.214;3.270;2022-08-21T05:40:27;461.00;2380.80
16491;DHT22;8356;51.214;3.270;2022-08-21T05:42:54;461.00;2380.80
16491;DHT22;8356;51.214;3.270;2022-08-21T05:45:22;461.00;2380.80
16491;DHT22;8356;51.214;3.270;2022-08-21T05:47:48;461.00;2380.80
16491;DHT22;8356;51.214;3.270;2022-08-21T05:50:14;461.00;2380.80
16491;DHT22;8356;51.214;3.270;2022-08-21T05:52:39;461.10;2380.80
16491;DHT22;8356;51.214;3.270;2022-08-21T05:55:05;461.10;2380.80
16491;DHT22;8356;51.214;3.270;2022-08-21T05:57:31;461.20;2380.80
16491;DHT22;8356;51.214;3.270;2022-08-21T05:59:56;461.10;2380.80
16491;DHT22;8356;51.214;3.270;2022-08-21T06:02:22;461.20;2380.80
16491;DHT22;8356;51.214;3.270;2022-08-21T06:04:47;461.10;2380.80
16491;DHT22;8356;51.214;3.270;2022-08-21T06:07:14;461.20;2380.80
16491;DHT22;8356;51.214;3.270;2022-08-21T06:09:40;435.80;2355.20
16491;DHT22;8356;51.214;3.270;2022-08-21T06:12:11;461.20;2380.80
16491;DHT22;8356;51.214;3.270;2022-08-21T06:14:39;461.30;2380.80
16491;DHT22;8356;51.214;3.270;2022-08-21T06:17:07;461.30;2380.80
16491;DHT22;8356;51.214;3.270;2022-08-21T06:19:34;461.40;2380.80
16491;DHT22;8356;51.214;3.270;2022-08-21T06:22:00;461.50;2380.80
16491;DHT22;8356;51.214;3.270;2022-08-21T06:24:26;461.50;2380.80
16491;DHT22;8356;51.214;3.270;2022-08-21T06:26:52;461.50;2380.80
16491;DHT22;8356;51.214;3.270;2022-08-21T06:29:18;461.50;2380.80
16491;DHT22;8356;51.214;3.270;2022-08-21T06:31:46;461.70;2380.80
16491;DHT22;8356;51.214;3.270;2022-08-21T06:34:12;461.70;2380.80
16491;DHT22;8356;51.214;3.270;2022-08-21T06:36:38;486.40;2380.80
16491;DHT22;8356;51.214;3.270;2022-08-21T06:39:04;486.40;2380.80
16491;DHT22;8356;51.214;3.270;2022-08-21T06:41:30;486.50;2380.80
16491;DHT22;8356;51.214;3.270;2022-08-21T06:43:56;486.60;2380.80
16491;DHT22;8356;51.214;3.270;2022-08-21T06:46:28;486.60;2380.80
16491;DHT22;8356;51.214;3.270;2022-08-21T06:48:54;486.70;2380.80
16491;DHT22;8356;51.214;3.270;2022-08-21T06:51:20;486.80;2380.80
16491;DHT22;8356;51.214;3.270;2022-08-21T06:53:45;486.90;2380.80
16491;DHT22;8356;51.214;3.270;2022-08-21T06:56:12;487.00;2380.80
16491;DHT22;8356;51.214;3.270;2022-08-21T06:58:37;487.10;2380.80
16491;DHT22;8356;51.214;3.270;2022-08-21T07:01:04;487.20;2380.80
16491;DHT22;8356;51.214;3.270;2022-08-21T07:03:36;487.30;2380.80
16491;DHT22;8356;51.214;3.270;2022-08-21T07:06:03;512.00;2380.80
16491;DHT22;8356;51.214;3.270;2022-08-21T07:08:29;512.00;2380.80
16491;DHT22;8356;51.214;3.270;2022-08-21T07:10:56;512.10;2380.80
16491;DHT22;8356;51.214;3.270;2022-08-21T07:13:23;512.20;2380.80
16491;DHT22;8356;51.214;3.270;2022-08-21T07:15:49;512.30;2380.80
16491;DHT22;8356;51.214;3.270;2022-08-21T07:18:14;512.40;2380.80
16491;DHT22;8356;51.214;3.270;2022-08-21T07:20:41;512.40;2380.80
16491;DHT22;8356;51.214;3.270;2022-08-21T07:23:22;512.50;2380.80
16491;DHT22;8356;51.214;3.270;2022-08-21T07:25:48;512.60;2380.80
16491;DHT22;8356;51.214;3.270;2022-08-21T07:28:14;512.80;2380.80
16491;DHT22;8356;51.214;3.270;2022-08-21T07:30:39;537.60;2406.40
16491;DHT22;8356;51.214;3.270;2022-08-21T07:33:05;537.80;2406.40
16491;DHT22;8356;51.214;3.270;2022-08-21T07:35:31;537.80;2406.40
16491;DHT22;8356;51.214;3.270;2022-08-21T07:37:58;538.10;2406.40
16491;DHT22;8356;51.214;3.270;2022-08-21T07:40:24;538.20;2406.40
16491;DHT22;8356;51.214;3.270;2022-08-21T07:42:50;538.30;2406.40
16491;DHT22;8356;51.214;3.270;2022-08-21T07:45:21;538.30;2406.40
16491;DHT22;8356;51.214;3.270;2022-08-21T07:47:48;538.40;2406.40
16491;DHT22;8356;51.214;3.270;2022-08-21T07:50:14;538.40;2406.40
16491;DHT22;8356;51.214;3.270;2022-08-21T07:52:41;563.20;2432.00
16491;DHT22;8356;51.214;3.270;2022-08-21T07:55:08;563.40;2432.00
16491;DHT22;8356;51.214;3.270;2022-08-21T07:57:36;563.40;2432.00
16491;DHT22;8356;51.214;3.270;2022-08-21T08:00:05;563.30;2432.00
16491;DHT22;8356;51.214;3.270;2022-08-21T08:02:31;563.20;2432.00
16491;DHT22;8356;51.214;3.270;2022-08-21T08:05:01;563.20;2432.00
16491;DHT22;8356;51.214;3.270;2022-08-21T08:07:27;563.40;2432.00
16491;DHT22;8356;51.214;3.270;2022-08-21T08:09:53;563.70;2432.00
16491;DHT22;8356;51.214;3.270;2022-08-21T08:12:18;563.90;2432.00
16491;DHT22;8356;51.214;3.270;2022-08-21T08:14:45;564.10;2432.00
16491;DHT22;8356;51.214;3.270;2022-08-21T08:17:11;588.90;2432.00
16491;DHT22;8356;51.214;3.270;2022-08-21T08:19:38;588.90;2432.00
16491;DHT22;8356;51.214;3.270;2022-08-21T08:22:16;589.00;2432.00
16491;DHT22;8356;51.214;3.270;2022-08-21T08:24:44;589.10;2432.00
16491;DHT22;8356;51.214;3.270;2022-08-21T08:27:10;589.10;2432.00
16491;DHT22;8356;51.214;3.270;2022-08-21T08:29:36;589.30;2432.00
16491;DHT22;8356;51.214;3.270;2022-08-21T08:32:02;589.70;2432.00
16491;DHT22;8356;51.214;3.270;2022-08-21T08:34:28;589.60;2432.00
16491;DHT22;8356;51.214;3.270;2022-08-21T08:36:54;589.50;2432.00
16491;DHT22;8356;51.214;3.270;2022-08-21T08:39:19;589.30;2432.00
16491;DHT22;8356;51.214;3.270;2022-08-21T08:41:47;589.10;2432.00
16491;DHT22;8356;51.214;3.270;2022-08-21T08:44:16;588.80;2432.00
16491;DHT22;8356;51.214;3.270;2022-08-21T08:46:47;563.90;2432.00
16491;DHT22;8356;51.214;3.270;2022-08-21T08:49:15;563.90;2432.00
16491;DHT22;8356;51.214;3.270;2022-08-21T08:51:46;563.80;2432.00
16491;DHT22;8356;51.214;3.270;2022-08-21T08:54:36;564.00;2432.00
16491;DHT22;8356;51.214;3.270;2022-08-21T08:57:09;588.80;2432.00
16491;DHT22;8356;51.214;3.270;2022-08-21T08:59:46;589.20;2432.00
16491;DHT22;8356;51.214;3.270;2022-08-21T09:02:13;589.70;2432.00
16491;DHT22;8356;51.214;3.270;2022-08-21T09:04:41;614.60;2432.00
16491;DHT22;8356;51.214;3.270;2022-08-21T09:10:19;614.70;2432.00
16491;DHT22;8356;51.214;3.270;2022-08-21T09:12:59;615.00;2432.00
16491;DHT22;8356;51.214;3.270;2022-08-21T09:18:20;615.20;2432.00
16491;DHT22;8356;51.214;3.270;2022-08-21T09:21:19;615.10;2432.00
16491;DHT22;8356;51.214;3.270;2022-08-21T09:23:57;615.20;2432.00
16491;DHT22;8356;51.214;3.270;2022-08-21T09:29:11;640.00;2432.00
16491;DHT22;8356;51.214;3.270;2022-08-21T09:31:37;640.10;2432.00
16491;DHT22;8356;51.214;3.270;2022-08-21T09:34:06;640.20;2432.00
16491;DHT22;8356;51.214;3.270;2022-08-21T09:36:40;640.40;2432.00
16491;DHT22;8356;51.214;3.270;2022-08-21T09:39:09;640.80;2432.00
16491;DHT22;8356;51.214;3.270;2022-08-21T09:41:36;665.60;2432.00
16491;DHT22;8356;51.214;3.270;2022-08-21T09:44:03;640.60;2432.00
16491;DHT22;8356;51.214;3.270;2022-08-21T09:46:29;640.70;2432.00
16491;DHT22;8356;51.214;3.270;2022-08-21T09:48:59;640.60;2432.00
16491;DHT22;8356;51.214;3.270;2022-08-21T09:51:31;640.50;2432.00
16491;DHT22;8356;51.214;3.270;2022-08-21T09:54:16;640.50;2432.00
16491;DHT22;8356;51.214;3.270;2022-08-21T09:59:40;640.60;2432.00
16491;DHT22;8356;51.214;3.270;2022-08-21T10:02:29;640.50;2432.00
16491;DHT22;8356;51.214;3.270;2022-08-21T10:05:00;640.20;2432.00
16491;DHT22;8356;51.214;3.270;2022-08-21T10:07:28;640.20;2432.00
16491;DHT22;8356;51.214;3.270;2022-08-21T10:12:40;640.30;2432.00
16491;DHT22;8356;51.214;3.270;2022-08-21T10:16:15;640.20;2432.00
16491;DHT22;8356;51.214;3.270;2022-08-21T10:19:01;640.20;2432.00
16491;DHT22;8356;51.214;3.270;2022-08-21T10:21:59;640.50;2432.00
16491;DHT22;8356;51.214;3.270;2022-08-21T10:27:27;640.70;2432.00
16491;DHT22;8356;51.214;3.270;2022-08-21T10:30:13;640.80;2432.00
16491;DHT22;8356;51.214;3.270;2022-08-21T10:32:59;640.70;2432.00
16491;DHT22;8356;51.214;3.270;2022-08-21T10:35:33;640.50;2432.00
16491;DHT22;8356;51.214;3.270;2022-08-21T10:41:23;640.30;2432.00
16491;DHT22;8356;51.214;3.270;2022-08-21T10:47:08;640.30;2432.00
16491;DHT22;8356;51.214;3.270;2022-08-21T10:55:41;640.30;2432.00
16491;DHT22;8356;51.214;3.270;2022-08-21T10:58:12;640.40;2432.00
16491;DHT22;8356;51.214;3.270;2022-08-21T11:00:50;640.20;2432.00
16491;DHT22;8356;51.214;3.270;2022-08-21T11:03:39;640.00;2432.00
16491;DHT22;8356;51.214;3.270;2022-08-21T11:06:23;615.10;2432.00
16491;DHT22;8356;51.214;3.270;2022-08-21T11:08:57;615.10;2432.00
16491;DHT22;8356;51.214;3.270;2022-08-21T11:14:03;615.10;2432.00
16491;DHT22;8356;51.214;3.270;2022-08-21T11:19:21;640.50;2432.00
16491;DHT22;8356;51.214;3.270;2022-08-21T11:24:50;665.70;2432.00
16491;DHT22;8356;51.214;3.270;2022-08-21T11:27:36;665.70;2432.00
16491;DHT22;8356;51.214;3.270;2022-08-21T11:30:05;665.60;2432.00
16491;DHT22;8356;51.214;3.270;2022-08-21T11:41:02;615.20;2432.00
16491;DHT22;8356;51.214;3.270;2022-08-21T11:43:44;615.10;2432.00
16491;DHT22;8356;51.214;3.270;2022-08-21T11:51:59;615.20;2432.00
16491;DHT22;8356;51.214;3.270;2022-08-21T11:54:40;615.20;2432.00
16491;DHT22;8356;51.214;3.270;2022-08-21T11:59:45;614.90;2432.00
16491;DHT22;8356;51.214;3.270;2022-08-21T12:02:19;614.80;2432.00
16491;DHT22;8356;51.214;3.270;2022-08-21T12:04:51;614.60;2432.00
16491;DHT22;8356;51.214;3.270;2022-08-21T12:07:31;614.70;2432.00
16491;DHT22;8356;51.214;3.270;2022-08-21T12:09:58;614.70;2432.00
16491;DHT22;8356;51.214;3.270;2022-08-21T12:12:28;614.70;2432.00
16491;DHT22;8356;51.214;3.270;2022-08-21T12:17:40;615.00;2432.00
16491;DHT22;8356;51.214;3.270;2022-08-21T12:25:39;614.90;2432.00
16491;DHT22;8356;51.214;3.270;2022-08-21T12:28:21;615.00;2432.00
16491;DHT22;8356;51.214;3.270;2022-08-21T12:30:48;615.20;2432.00
16491;DHT22;8356;51.214;3.270;2022-08-21T12:35:50;640.80;2432.00
16491;DHT22;8356;51.214;3.270;2022-08-21T12:38:27;665.80;2432.00
16491;DHT22;8356;51.214;3.270;2022-08-21T12:41:10;666.00;2432.00
16491;DHT22;8356;51.214;3.270;2022-08-21T12:43:50;666.50;2432.00
16491;DHT22;8356;51.214;3.270;2022-08-21T12:46:19;691.30;2432.00
16491;DHT22;8356;51.214;3.270;2022-08-21T12:48:55;691.50;2432.00
16491;DHT22;8356;51.214;3.270;2022-08-21T12:51:45;691.50;2432.00
16491;DHT22;8356;51.214;3.270;2022-08-21T12:54:22;691.40;2432.00
16491;DHT22;8356;51.214;3.270;2022-08-21T12:56:58;691.40;2432.00
16491;DHT22;8356;51.214;3.270;2022-08-21T12:59:24;691.50;2432.00
16491;DHT22;8356;51.214;3.270;2022-08-21T13:01:51;691.90;2432.00
16491;DHT22;8356;51.214;3.270;2022-08-21T13:04:19;691.90;2432.00
16491;DHT22;8356;51.214;3.270;2022-08-21T13:06:50;691.60;2432.00
16491;DHT22;8356;51.214;3.270;2022-08-21T13:09:20;666.50;2432.00
16491;DHT22;8356;51.214;3.270;2022-08-21T13:11:49;691.20;2432.00
16491;DHT22;8356;51.214;3.270;2022-08-21T13:14:36;691.40;2432.00
16491;DHT22;8356;51.214;3.270;2022-08-21T13:17:04;691.90;2432.00
16491;DHT22;8356;51.214;3.270;2022-08-21T13:19:31;691.90;2432.00
16491;DHT22;8356;51.214;3.270;2022-08-21T13:21:58;691.60;2432.00
16491;DHT22;8356;51.214;3.270;2022-08-21T13:24:29;691.30;2432.00
16491;DHT22;8356;51.214;3.270;2022-08-21T13:26:56;666.30;2432.00
16491;DHT22;8356;51.214;3.270;2022-08-21T13:29:27;665.90;2432.00
16491;DHT22;8356;51.214;3.270;2022-08-21T13:31:55;665.60;2432.00
16491;DHT22;8356;51.214;3.270;2022-08-21T13:34:24;640.90;2432.00
16491;DHT22;8356;51.214;3.270;2022-08-21T13:36:54;640.80;2432.00
16491;DHT22;8356;51.214;3.270;2022-08-21T13:39:21;640.90;2432.00
16491;DHT22;8356;51.214;3.270;2022-08-21T13:41:49;640.60;2432.00
16491;DHT22;8356;51.214;3.270;2022-08-21T13:44:45;640.50;2432.00
16491;DHT22;8356;51.214;3.270;2022-08-21T13:47:11;640.60;2432.00
16491;DHT22;8356;51.214;3.270;2022-08-21T13:49:42;640.50;2432.00
16491;DHT22;8356;51.214;3.270;2022-08-21T13:52:43;640.40;2432.00
16491;DHT22;8356;51.214;3.270;2022-08-21T13:55:13;640.50;2432.00
16491;DHT22;8356;51.214;3.270;2022-08-21T13:57:38;640.50;2432.00
16491;DHT22;8356;51.214;3.270;2022-08-21T14:00:19;640.50;2432.00
16491;DHT22;8356;51.214;3.270;2022-08-21T14:02:49;640.40;2432.00
16491;DHT22;8356;51.214;3.270;2022-08-21T14:05:28;640.20;2432.00
16491;DHT22;8356;51.214;3.270;2022-08-21T14:08:08;640.10;2432.00
16491;DHT22;8356;51.214;3.270;2022-08-21T14:10:44;640.20;2432.00
16491;DHT22;8356;51.214;3.270;2022-08-21T14:16:00;640.20;2432.00
16491;DHT22;8356;51.214;3.270;2022-08-21T14:18:27;640.30;2432.00
16491;DHT22;8356;51.214;3.270;2022-08-21T14:21:04;640.30;2432.00
16491;DHT22;8356;51.214;3.270;2022-08-21T14:23:30;640.30;2432.00
16491;DHT22;8356;51.214;3.270;2022-08-21T14:25:59;640.30;2432.00
16491;DHT22;8356;51.214;3.270;2022-08-21T14:28:28;640.40;2432.00
16491;DHT22;8356;51.214;3.270;2022-08-21T14:30:55;640.40;2432.00
16491;DHT22;8356;51.214;3.270;2022-08-21T14:33:29;640.40;2432.00
16491;DHT22;8356;51.214;3.270;2022-08-21T14:35:56;640.50;2432.00
16491;DHT22;8356;51.214;3.270;2022-08-21T14:38:24;640.50;2432.00
16491;DHT22;8356;51.214;3.270;2022-08-21T14:40:59;640.50;2432.00
16491;DHT22;8356;51.214;3.270;2022-08-21T14:43:26;640.50;2432.00
16491;DHT22;8356;51.214;3.270;2022-08-21T14:45:54;640.70;2432.00
16491;DHT22;8356;51.214;3.270;2022-08-21T14:48:20;665.60;2432.00
16491;DHT22;8356;51.214;3.270;2022-08-21T14:50:45;640.80;2432.00
16491;DHT22;8356;51.214;3.270;2022-08-21T14:53:11;640.70;2432.00
16491;DHT22;8356;51.214;3.270;2022-08-21T14:55:38;640.70;2432.00
16491;DHT22;8356;51.214;3.270;2022-08-21T14:58:37;640.20;2432.00
16491;DHT22;8356;51.214;3.270;2022-08-21T15:01:05;640.80;2432.00
16491;DHT22;8356;51.214;3.270;2022-08-21T15:03:31;640.80;2432.00
16491;DHT22;8356;51.214;3.270;2022-08-21T15:05:57;640.70;2432.00
16491;DHT22;8356;51.214;3.270;2022-08-21T15:08:23;640.60;2432.00
16491;DHT22;8356;51.214;3.270;2022-08-21T15:10:50;640.70;2432.00
16491;DHT22;8356;51.214;3.270;2022-08-21T15:13:16;640.70;2432.00
16491;DHT22;8356;51.214;3.270;2022-08-21T15:15:44;640.90;2432.00
16491;DHT22;8356;51.214;3.270;2022-08-21T15:18:11;665.60;2432.00
16491;DHT22;8356;51.214;3.270;2022-08-21T15:20:37;640.80;2432.00
16491;DHT22;8356;51.214;3.270;2022-08-21T15:23:04;640.90;2432.00
16491;DHT22;8356;51.214;3.270;2022-08-21T15:25:30;640.70;2432.00
16491;DHT22;8356;51.214;3.270;2022-08-21T15:27:56;640.80;2432.00
16491;DHT22;8356;51.214;3.270;2022-08-21T15:30:23;640.50;2432.00
16491;DHT22;8356;51.214;3.270;2022-08-21T15:32:49;640.40;2432.00
16491;DHT22;8356;51.214;3.270;2022-08-21T15:35:14;640.40;2432.00
16491;DHT22;8356;51.214;3.270;2022-08-21T15:37:40;640.50;2432.00
16491;DHT22;8356;51.214;3.270;2022-08-21T15:40:06;640.40;2432.00
16491;DHT22;8356;51.214;3.270;2022-08-21T15:42:33;640.40;2432.00
16491;DHT22;8356;51.214;3.270;2022-08-21T15:44:59;640.30;2432.00
16491;DHT22;8356;51.214;3.270;2022-08-21T15:47:29;640.30;2432.00
16491;DHT22;8356;51.214;3.270;2022-08-21T15:49:55;640.30;2432.00
16491;DHT22;8356;51.214;3.270;2022-08-21T15:52:22;640.40;2432.00
16491;DHT22;8356;51.214;3.270;2022-08-21T15:54:48;640.30;2432.00
16491;DHT22;8356;51.214;3.270;2022-08-21T15:57:17;640.30;2432.00
16491;DHT22;8356;51.214;3.270;2022-08-21T15:59:48;640.30;2432.00
16491;DHT22;8356;51.214;3.270;2022-08-21T16:02:21;640.30;2432.00
16491;DHT22;8356;51.214;3.270;2022-08-21T16:04:47;640.40;2432.00
16491;DHT22;8356;51.214;3.270;2022-08-21T16:07:13;640.30;2432.00
16491;DHT22;8356;51.214;3.270;2022-08-21T16:09:38;640.10;2432.00
16491;DHT22;8356;51.214;3.270;2022-08-21T16:12:05;640.00;2432.00
16491;DHT22;8356;51.214;3.270;2022-08-21T16:14:32;615.30;2432.00
16491;DHT22;8356;51.214;3.270;2022-08-21T16:16:59;640.00;2432.00
16491;DHT22;8356;51.214;3.270;2022-08-21T16:19:26;640.10;2432.00
16491;DHT22;8356;51.214;3.270;2022-08-21T16:21:53;640.10;2432.00
16491;DHT22;8356;51.214;3.270;2022-08-21T16:24:18;640.30;2432.00
16491;DHT22;8356;51.214;3.270;2022-08-21T16:26:44;640.20;2432.00